Time;durP1;ratioP1;P1;durP2;ratioP2;P2;SDS_P1;SDS_P2;PMS_P1;PMS_P2;Temp;Humidity;BMP_temperature;BMP_pressure;BME280_temperature;BME280_humidity;BME280_pressure;Samples;Min_cycle;Max_cycle;Signal;HPM_P1;HPM_P2
2023/03/25 00:02:03;;;;;;;4.47;1.77;;;9.10;99.90;;;;;;6256799;28;20061;-80
2023/03/25 00:05:06;;;;;;;1.90;0.98;;;9.10;99.90;;;;;;6299593;28;20059;-79
2023/03/25 00:08:08;;;;;;;1.98;1.23;;;9.10;99.90;;;;;;6302693;28;20055;-79
2023/03/25 00:11:09;;;;;;;2.53;0.80;;;9.10;99.90;;;;;;6298752;28;20040;-80
2023/03/25 00:14:15;;;;;;;1.88;1.15;;;9.00;99.90;;;;;;6303368;28;20040;-79
2023/03/25 00:17:19;;;;;;;3.00;1.02;;;9.00;99.90;;;;;;6302935;28;20048;-78
2023/03/25 00:20:21;;;;;;;1.50;0.80;;;9.00;99.90;;;;;;6299288;28;20063;-79
2023/03/25 00:23:23;;;;;;;1.83;0.93;;;9.00;99.90;;;;;;6301841;28;20059;-78
2023/03/25 00:26:28;;;;;;;3.53;1.00;;;8.90;99.90;;;;;;6300960;28;20044;-79
2023/03/25 00:29:31;;;;;;;2.22;1.00;;;8.90;99.90;;;;;;6304403;28;20060;-79
2023/03/25 00:32:33;;;;;;;1.75;0.57;;;8.90;99.90;;;;;;6303050;28;20041;-78
2023/03/25 00:35:36;;;;;;;1.88;1.00;;;9.00;99.90;;;;;;6302460;28;20047;-78
2023/03/25 00:38:40;;;;;;;1.23;1.15;;;9.10;99.90;;;;;;6302745;28;20535;-79
2023/03/25 00:41:42;;;;;;;0.63;0.63;;;9.10;99.90;;;;;;6298850;28;20128;-80
2023/03/25 00:44:45;;;;;;;1.00;0.75;;;9.20;99.90;;;;;;6302751;28;20040;-81
2023/03/25 00:47:47;;;;;;;1.73;0.77;;;9.30;99.90;;;;;;6300712;28;20048;-81
2023/03/25 00:50:48;;;;;;;1.73;0.98;;;9.40;99.90;;;;;;6302296;28;20055;-80
2023/03/25 00:53:52;;;;;;;3.05;1.17;;;9.40;99.90;;;;;;6300667;28;20495;-81
2023/03/25 00:56:53;;;;;;;0.88;0.70;;;9.50;99.90;;;;;;6301249;28;20049;-80
2023/03/25 00:59:56;;;;;;;5.47;1.15;;;9.50;99.90;;;;;;6307695;28;20049;-81
2023/03/25 01:03:00;;;;;;;1.23;0.80;;;9.50;99.90;;;;;;6305680;28;20049;-81
2023/03/25 01:06:02;;;;;;;1.90;0.93;;;9.50;99.90;;;;;;6305066;28;20060;-81
2023/03/25 01:09:06;;;;;;;5.88;1.02;;;9.50;99.90;;;;;;6308621;28;20152;-81
2023/03/25 01:12:07;;;;;;;4.32;0.80;;;9.50;99.90;;;;;;6308105;28;20410;-80
2023/03/25 01:15:12;;;;;;;1.88;0.93;;;9.50;99.90;;;;;;6303859;28;20044;-79
2023/03/25 01:18:14;;;;;;;2.97;0.82;;;9.50;99.90;;;;;;6292318;28;20052;-79
2023/03/25 01:21:16;;;;;;;2.47;0.80;;;9.50;99.90;;;;;;6296661;28;20048;-78
2023/03/25 01:24:18;;;;;;;1.40;0.98;;;9.50;99.90;;;;;;6293052;28;20063;-78
2023/03/25 01:27:20;;;;;;;3.67;0.68;;;9.60;99.90;;;;;;6288985;28;20032;-79
2023/03/25 01:30:23;;;;;;;2.72;1.15;;;9.70;99.90;;;;;;6297182;28;20044;-78
2023/03/25 01:33:24;;;;;;;0.88;0.52;;;9.60;99.90;;;;;;6286675;28;20127;-79
2023/03/25 01:36:28;;;;;;;1.30;1.00;;;9.40;99.90;;;;;;6298120;28;20067;-78
2023/03/25 01:39:30;;;;;;;7.30;0.70;;;9.20;99.90;;;;;;6296483;28;20044;-78
2023/03/25 01:42:31;;;;;;;2.60;2.40;;;8.90;99.90;;;;;;6292169;28;20558;-78
2023/03/25 01:45:34;;;;;;;2.97;0.82;;;8.80;99.90;;;;;;6295940;28;20526;-78
2023/03/25 01:48:39;;;;;;;0.70;0.68;;;8.60;99.90;;;;;;6294298;28;20032;-79
2023/03/25 01:51:44;;;;;;;2.90;0.77;;;8.40;99.90;;;;;;6296169;28;20078;-79
2023/03/25 01:54:47;;;;;;;1.55;1.20;;;8.30;99.90;;;;;;6294605;28;20044;-78
2023/03/25 01:57:53;;;;;;;1.08;0.60;;;8.20;99.90;;;;;;6288549;28;20057;-78
2023/03/25 02:00:56;;;;;;;1.45;0.45;;;8.10;99.90;;;;;;6291726;28;20093;-78
2023/03/25 02:04:01;;;;;;;1.45;1.15;;;8.00;99.90;;;;;;6291946;28;20068;-78
2023/03/25 02:07:07;;;;;;;7.88;0.70;;;7.90;99.90;;;;;;6296544;28;20088;-78
2023/03/25 02:10:10;;;;;;;2.67;0.80;;;7.80;99.90;;;;;;6292988;28;20044;-78
2023/03/25 02:13:13;;;;;;;2.42;0.88;;;7.80;99.90;;;;;;6296925;28;20605;-78
2023/03/25 02:16:28;;;;;;;1.90;0.43;;;7.70;99.90;;;;;;6295405;28;20048;-77
2023/03/25 02:20:06;;;;;;;2.50;0.65;;;7.70;99.90;;;;;;6292541;28;20054;-76
2023/03/25 02:23:44;;;;;;;0.60;0.60;;;7.70;99.90;;;;;;6295959;28;20048;-78
2023/03/25 02:27:14;;;;;;;4.00;1.25;;;7.70;99.90;;;;;;6293523;28;20063;-77
2023/03/25 02:30:43;;;;;;;3.05;0.57;;;7.60;99.90;;;;;;6296214;28;20053;-77
2023/03/25 02:34:23;;;;;;;2.50;0.63;;;7.60;99.90;;;;;;6296195;28;20048;-78
2023/03/25 02:38:13;;;;;;;5.05;0.82;;;7.60;99.90;;;;;;6297240;28;20044;-76
2023/03/25 02:41:22;;;;;;;0.85;0.43;;;7.60;99.90;;;;;;6197108;28;20054;-79
2023/03/25 02:44:30;;;;;;;2.03;0.73;;;7.50;99.90;;;;;;6196060;28;20109;-78
2023/03/25 02:47:35;;;;;;;3.00;1.08;;;7.50;99.90;;;;;;6291464;28;20045;-77
2023/03/25 02:50:41;;;;;;;0.65;0.50;;;7.60;99.90;;;;;;6297633;28;21485;-79
2023/03/25 02:53:46;;;;;;;2.05;0.93;;;7.50;99.90;;;;;;6296438;28;20044;-76
2023/03/25 02:56:50;;;;;;;0.80;0.50;;;7.50;99.90;;;;;;6297562;28;20048;-78
2023/03/25 02:59:53;;;;;;;2.17;0.65;;;7.60;99.90;;;;;;6296049;28;20052;-77
2023/03/25 03:02:58;;;;;;;1.23;0.77;;;7.60;99.90;;;;;;6298648;28;20044;-78
2023/03/25 03:06:02;;;;;;;6.22;1.70;;;7.60;99.90;;;;;;6294801;28;20056;-77
2023/03/25 03:09:21;;;;;;;1.92;0.52;;;7.60;99.90;;;;;;6297252;28;20550;-78
2023/03/25 03:12:42;;;;;;;0.93;0.65;;;7.60;99.90;;;;;;6292594;28;20174;-79
2023/03/25 03:15:52;;;;;;;3.05;0.73;;;7.60;99.90;;;;;;6295243;28;20052;-80
2023/03/25 03:19:01;;;;;;;3.30;0.75;;;7.60;99.90;;;;;;6296140;28;20411;-78
2023/03/25 03:22:14;;;;;;;1.45;0.55;;;7.60;99.90;;;;;;6297323;28;20075;-79
2023/03/25 03:25:23;;;;;;;2.38;0.63;;;7.60;99.90;;;;;;6295881;28;20073;-77
2023/03/25 03:28:32;;;;;;;1.88;1.25;;;7.70;99.90;;;;;;6295094;28;20056;-77
2023/03/25 03:31:40;;;;;;;0.90;0.60;;;7.70;99.90;;;;;;6294009;28;20048;-77
2023/03/25 03:34:46;;;;;;;5.32;1.58;;;7.70;99.90;;;;;;6294951;28;20049;-78
2023/03/25 03:37:53;;;;;;;1.60;0.80;;;7.80;99.90;;;;;;6296280;28;20044;-76
2023/03/25 03:41:00;;;;;;;1.80;0.73;;;7.80;99.90;;;;;;6294440;28;20048;-78
2023/03/25 03:44:06;;;;;;;0.55;0.43;;;7.90;99.90;;;;;;6296774;28;20054;-77
2023/03/25 03:47:12;;;;;;;0.98;0.70;;;7.90;99.90;;;;;;6294180;28;20556;-78
2023/03/25 03:50:18;;;;;;;1.45;0.82;;;7.90;99.90;;;;;;6292164;28;20049;-78
2023/03/25 03:53:26;;;;;;;1.13;0.82;;;8.00;99.90;;;;;;6289542;28;20052;-78
2023/03/25 03:56:35;;;;;;;2.85;0.73;;;8.00;99.90;;;;;;6293203;28;20722;-78
2023/03/25 03:59:46;;;;;;;0.70;0.70;;;8.00;99.90;;;;;;6289480;28;20043;-78
2023/03/25 04:02:50;;;;;;;0.82;0.70;;;8.10;99.90;;;;;;6289244;28;20093;-79
2023/03/25 04:05:57;;;;;;;3.10;0.73;;;8.10;99.90;;;;;;6295757;28;20048;-79
2023/03/25 04:09:05;;;;;;;2.38;0.93;;;8.10;99.90;;;;;;6291649;28;20045;-78
2023/03/25 04:12:13;;;;;;;4.13;0.80;;;8.10;99.90;;;;;;6293409;28;20054;-79
2023/03/25 04:15:16;;;;;;;5.80;1.00;;;8.20;99.90;;;;;;6297460;28;20410;-78
2023/03/25 04:18:22;;;;;;;4.90;0.80;;;8.20;99.90;;;;;;6297038;28;20044;-78
2023/03/25 04:21:24;;;;;;;3.22;1.42;;;8.30;99.90;;;;;;6294307;28;20139;-78
2023/03/25 04:24:30;;;;;;;1.63;1.08;;;8.30;99.90;;;;;;6292275;28;20052;-78
2023/03/25 04:27:31;;;;;;;1.13;0.52;;;8.40;99.90;;;;;;6292611;28;20086;-79
2023/03/25 04:30:36;;;;;;;2.67;0.63;;;8.40;99.90;;;;;;6299391;28;20048;-79
2023/03/25 04:33:38;;;;;;;1.45;0.75;;;8.50;99.90;;;;;;6298584;28;20049;-77
2023/03/25 04:36:41;;;;;;;6.63;1.23;;;8.50;99.90;;;;;;6301646;28;20041;-78
2023/03/25 04:39:43;;;;;;;0.68;0.68;;;8.50;99.90;;;;;;6304639;28;20048;-79
2023/03/25 04:42:45;;;;;;;6.82;1.92;;;8.50;99.90;;;;;;6305654;28;20056;-78
2023/03/25 04:45:52;;;;;;;2.25;0.77;;;8.60;99.90;;;;;;6216425;28;20052;-78
2023/03/25 04:48:55;;;;;;;2.10;0.55;;;8.60;99.90;;;;;;6307504;28;20053;-78
2023/03/25 04:51:58;;;;;;;5.90;0.88;;;8.60;99.90;;;;;;6307703;28;20064;-82
2023/03/25 04:55:00;;;;;;;0.70;0.70;;;8.60;99.90;;;;;;6306947;28;20114;-82
2023/03/25 04:58:01;;;;;;;2.92;0.85;;;8.70;99.90;;;;;;6310420;28;20041;-82
2023/03/25 05:01:05;;;;;;;3.38;1.65;;;8.70;99.90;;;;;;6312010;28;20108;-81
2023/03/25 05:04:11;;;;;;;2.63;1.48;;;8.80;99.90;;;;;;6306828;28;20503;-81
2023/03/25 05:07:15;;;;;;;1.15;0.95;;;8.80;99.90;;;;;;6303461;28;20028;-81
2023/03/25 05:10:18;;;;;;;4.30;0.90;;;8.80;99.90;;;;;;6276008;28;20048;-81
2023/03/25 05:13:20;;;;;;;2.55;0.90;;;8.80;99.90;;;;;;6306203;28;20406;-81
2023/03/25 05:16:23;;;;;;;1.75;1.23;;;8.90;99.90;;;;;;6309420;28;20133;-81
2023/03/25 05:19:26;;;;;;;4.13;0.93;;;8.90;99.90;;;;;;6311966;28;20165;-82
2023/03/25 05:22:28;;;;;;;3.78;1.02;;;8.80;99.90;;;;;;6309806;28;20056;-81
2023/03/25 05:25:33;;;;;;;4.95;0.80;;;8.90;99.90;;;;;;6305675;28;20044;-81
2023/03/25 05:28:35;;;;;;;6.18;1.00;;;8.90;99.90;;;;;;6295567;28;20530;-82
2023/03/25 05:31:38;;;;;;;1.23;1.10;;;9.00;99.90;;;;;;6299352;28;20064;-81
2023/03/25 05:34:40;;;;;;;5.53;1.00;;;9.00;99.90;;;;;;6304173;28;20041;-82
2023/03/25 05:37:42;;;;;;;3.78;1.10;;;9.10;99.90;;;;;;6303969;28;20041;-82
2023/03/25 05:40:45;;;;;;;3.92;1.17;;;9.10;99.90;;;;;;6298776;28;20057;-83
2023/03/25 05:43:49;;;;;;;4.28;1.10;;;9.20;99.90;;;;;;6295481;28;20045;-83
2023/03/25 05:46:52;;;;;;;3.10;0.90;;;9.20;99.90;;;;;;6304446;28;20108;-81
2023/03/25 05:49:54;;;;;;;2.60;0.90;;;9.20;99.90;;;;;;6300857;28;20563;-80
2023/03/25 05:52:58;;;;;;;1.67;1.05;;;9.20;99.90;;;;;;6293303;28;20054;-80
2023/03/25 05:56:00;;;;;;;2.03;1.38;;;9.20;99.90;;;;;;6293657;28;20067;-83
2023/03/25 05:59:02;;;;;;;3.60;0.80;;;9.30;99.90;;;;;;6300723;28;20439;-83
2023/03/25 06:02:07;;;;;;;2.88;0.98;;;9.30;99.90;;;;;;6293389;28;20597;-81
2023/03/25 06:05:12;;;;;;;0.88;0.80;;;9.30;99.90;;;;;;6295622;28;20140;-82
2023/03/25 06:08:16;;;;;;;3.67;1.02;;;9.30;99.90;;;;;;6297232;28;20101;-82
2023/03/25 06:11:19;;;;;;;3.15;1.08;;;9.30;99.90;;;;;;6292259;28;20052;-82
2023/03/25 06:14:24;;;;;;;6.25;1.45;;;9.30;99.90;;;;;;6297121;28;20291;-82
2023/03/25 06:17:27;;;;;;;1.27;1.13;;;9.40;99.90;;;;;;6297146;28;20075;-83
2023/03/25 06:20:29;;;;;;;1.80;0.88;;;9.30;99.90;;;;;;6294603;28;20053;-79
2023/03/25 06:23:34;;;;;;;3.05;2.50;;;9.40;99.90;;;;;;6296638;28;20068;-82
2023/03/25 06:26:35;;;;;;;3.75;0.80;;;9.50;99.90;;;;;;6290785;28;20110;-83
2023/03/25 06:29:38;;;;;;;3.88;0.90;;;9.60;99.90;;;;;;6291082;28;20063;-82
2023/03/25 06:32:51;;;;;;;1.13;0.55;;;9.70;99.90;;;;;;6279301;28;20053;-81
2023/03/25 06:35:53;;;;;;;5.20;1.20;;;9.70;99.90;;;;;;6288892;28;20543;-82
2023/03/25 06:38:57;;;;;;;2.90;0.70;;;9.70;99.90;;;;;;6292406;28;20056;-83
2023/03/25 06:41:59;;;;;;;1.30;0.95;;;9.70;99.90;;;;;;6291555;28;20055;-82
2023/03/25 06:45:03;;;;;;;1.05;0.55;;;9.80;99.90;;;;;;6294339;28;20044;-82
2023/03/25 06:48:08;;;;;;;4.00;1.35;;;9.80;99.90;;;;;;6285472;28;20055;-82
2023/03/25 06:51:12;;;;;;;1.92;0.80;;;9.90;99.90;;;;;;6287609;28;20522;-82
2023/03/25 06:54:17;;;;;;;2.95;0.90;;;10.00;99.90;;;;;;6235147;28;20067;-82
2023/03/25 06:57:28;;;;;;;2.88;1.00;;;10.10;99.90;;;;;;6270213;28;20052;-81
2023/03/25 07:00:33;;;;;;;1.27;0.75;;;10.40;99.90;;;;;;6291026;28;20041;-82
2023/03/25 07:03:49;;;;;;;0.98;0.60;;;10.60;99.90;;;;;;6294986;28;20083;-82
2023/03/25 07:06:54;;;;;;;4.63;1.77;;;10.50;99.90;;;;;;6210451;28;20163;-81
2023/03/25 07:10:01;;;;;;;5.13;1.20;;;10.50;99.90;;;;;;6284521;28;20158;-81
2023/03/25 07:13:03;;;;;;;2.22;0.80;;;10.60;99.90;;;;;;6288438;28;20047;-83
2023/03/25 07:16:05;;;;;;;0.60;0.60;;;10.70;99.90;;;;;;6293713;28;20178;-81
2023/03/25 07:19:08;;;;;;;1.08;0.50;;;10.80;99.90;;;;;;6292901;28;20040;-83
2023/03/25 07:22:10;;;;;;;0.80;0.80;;;11.00;99.90;;;;;;6290400;28;20048;-82
2023/03/25 07:25:12;;;;;;;0.70;0.70;;;11.30;99.90;;;;;;6249311;28;20051;-83
2023/03/25 07:28:14;;;;;;;2.65;0.82;;;11.50;99.90;;;;;;6291247;28;20039;-82
2023/03/25 07:31:16;;;;;;;1.45;0.70;;;11.40;99.90;;;;;;6291170;28;20052;-83
2023/03/25 07:34:20;;;;;;;1.00;0.77;;;11.60;99.90;;;;;;6292039;28;20048;-83
2023/03/25 07:37:21;;;;;;;0.73;0.70;;;11.90;99.90;;;;;;6290029;28;20426;-81
2023/03/25 07:40:23;;;;;;;2.10;0.68;;;11.90;99.90;;;;;;6291371;28;20059;-82
2023/03/25 07:43:25;;;;;;;1.05;0.68;;;11.80;99.90;;;;;;6295444;28;20045;-82
2023/03/25 07:46:27;;;;;;;1.27;0.95;;;11.70;99.90;;;;;;6291880;28;20132;-82
2023/03/25 07:49:30;;;;;;;2.35;0.75;;;11.60;99.90;;;;;;6292919;28;20054;-81
2023/03/25 07:52:32;;;;;;;1.00;0.80;;;11.50;99.90;;;;;;6290533;28;20041;-80
2023/03/25 07:55:34;;;;;;;3.70;0.50;;;11.70;99.90;;;;;;6289619;28;20056;-82
2023/03/25 07:58:36;;;;;;;2.47;0.68;;;11.70;99.90;;;;;;6249060;28;20051;-81
2023/03/25 08:01:37;;;;;;;0.73;0.70;;;12.00;99.90;;;;;;6294057;28;20044;-81
2023/03/25 08:04:41;;;;;;;1.38;0.70;;;12.60;99.90;;;;;;6290851;28;20044;-80
2023/03/25 08:07:42;;;;;;;2.25;0.85;;;13.30;99.90;;;;;;6290868;28;20047;-81
2023/03/25 08:10:46;;;;;;;2.25;0.70;;;13.40;99.90;;;;;;6285378;28;20048;-81
2023/03/25 08:13:47;;;;;;;0.77;0.63;;;13.50;99.90;;;;;;6285361;28;20170;-82
2023/03/25 08:16:49;;;;;;;3.13;0.90;;;12.80;99.90;;;;;;6290634;28;20052;-81
2023/03/25 08:19:52;;;;;;;4.88;1.70;;;12.20;99.90;;;;;;6299250;28;20125;-82
2023/03/25 08:22:56;;;;;;;3.38;0.68;;;11.50;99.90;;;;;;6296503;28;20044;-79
2023/03/25 08:25:57;;;;;;;0.63;0.63;;;10.70;99.90;;;;;;6300645;28;20051;-79
2023/03/25 08:29:01;;;;;;;1.15;0.70;;;10.10;99.90;;;;;;6299328;28;20049;-79
2023/03/25 08:32:03;;;;;;;1.52;0.60;;;9.80;99.90;;;;;;6268175;28;20053;-80
2023/03/25 08:35:07;;;;;;;1.50;0.80;;;9.80;99.90;;;;;;6300118;28;20043;-80
2023/03/25 08:38:09;;;;;;;2.38;0.52;;;9.90;99.90;;;;;;6300345;28;20068;-80
2023/03/25 08:41:10;;;;;;;1.63;0.95;;;9.90;99.90;;;;;;6285491;28;20049;-80
2023/03/25 08:44:12;;;;;;;5.90;0.68;;;10.10;99.90;;;;;;6292160;28;20040;-78
2023/03/25 08:47:14;;;;;;;1.17;0.80;;;10.50;99.90;;;;;;6288765;28;20052;-80
2023/03/25 08:50:17;;;;;;;1.77;0.30;;;10.60;99.90;;;;;;6288787;28;20417;-79
2023/03/25 08:53:19;;;;;;;2.22;1.52;;;10.60;99.90;;;;;;6288955;28;20048;-80
2023/03/25 08:56:20;;;;;;;5.00;0.60;;;10.70;99.90;;;;;;6292905;28;20158;-80
2023/03/25 08:59:22;;;;;;;2.33;0.93;;;11.00;99.90;;;;;;6290109;28;20040;-80
2023/03/25 09:02:24;;;;;;;1.60;0.70;;;11.00;99.90;;;;;;6290159;28;20487;-80
2023/03/25 09:05:27;;;;;;;2.08;0.73;;;10.80;99.90;;;;;;6290944;28;20068;-81
2023/03/25 09:08:29;;;;;;;2.03;1.27;;;10.60;99.90;;;;;;6289231;28;20044;-81
2023/03/25 09:11:31;;;;;;;1.75;1.13;;;10.70;99.90;;;;;;6286949;28;20048;-79
2023/03/25 09:14:33;;;;;;;3.30;1.40;;;10.90;99.90;;;;;;6291761;28;20052;-81
2023/03/25 09:17:35;;;;;;;1.05;0.68;;;10.90;99.90;;;;;;6292115;28;20052;-81
2023/03/25 09:20:38;;;;;;;1.58;1.23;;;10.50;99.90;;;;;;6292855;28;20040;-79
2023/03/25 09:23:40;;;;;;;3.30;1.25;;;10.20;99.90;;;;;;6296456;28;20407;-80
2023/03/25 09:26:41;;;;;;;1.70;1.20;;;10.00;99.90;;;;;;6296966;28;20167;-78
2023/03/25 09:29:43;;;;;;;7.10;1.08;;;9.90;99.90;;;;;;6296430;28;20440;-80
2023/03/25 09:32:45;;;;;;;4.70;1.48;;;9.80;99.90;;;;;;6296081;28;20498;-79
2023/03/25 09:35:49;;;;;;;2.88;1.40;;;10.00;99.90;;;;;;6295679;28;21119;-80
2023/03/25 09:38:50;;;;;;;3.92;1.50;;;10.00;99.90;;;;;;6295522;28;20048;-80
2023/03/25 09:42:26;;;;;;;4.55;2.05;;;10.10;99.90;;;;;;6293608;28;23490;-79
2023/03/25 09:45:35;;;;;;;4.22;1.15;;;10.10;99.90;;;;;;6291593;28;20045;-80
2023/03/25 09:48:38;;;;;;;3.75;1.10;;;10.10;99.90;;;;;;6291907;28;20052;-78
2023/03/25 09:51:44;;;;;;;2.13;1.10;;;10.20;99.90;;;;;;6291663;28;20052;-80
2023/03/25 09:54:51;;;;;;;1.17;1.10;;;10.40;99.90;;;;;;6292636;28;20414;-80
2023/03/25 09:58:05;;;;;;;1.27;1.10;;;10.70;99.90;;;;;;6294347;28;20067;-79
2023/03/25 10:01:22;;;;;;;5.35;1.10;;;11.00;99.90;;;;;;6296364;28;20503;-81
2023/03/25 10:04:49;;;;;;;0.80;0.80;;;11.30;99.90;;;;;;6295011;28;20045;-80
2023/03/25 10:08:08;;;;;;;0.90;0.80;;;11.40;99.90;;;;;;6293570;28;20052;-81
2023/03/25 10:11:12;;;;;;;;;;;11.60;99.90;;;;;;6295180;28;20048;-78
2023/03/25 10:14:20;;;;;;;3.13;1.00;;;11.80;99.90;;;;;;6293427;28;19927;-81
2023/03/25 10:17:30;;;;;;;2.25;0.90;;;12.10;99.90;;;;;;6295330;28;20105;-80
2023/03/25 10:20:44;;;;;;;1.00;0.70;;;12.40;99.90;;;;;;6293516;28;20045;-81
2023/03/25 10:23:56;;;;;;;2.63;0.70;;;12.80;99.90;;;;;;6298299;28;20499;-80
2023/03/25 10:27:02;;;;;;;2.40;0.90;;;12.80;99.90;;;;;;6296838;28;20044;-79
2023/03/25 10:30:12;;;;;;;2.85;1.20;;;12.80;99.90;;;;;;6295022;28;20044;-80
2023/03/25 10:33:21;;;;;;;1.83;0.57;;;13.00;99.90;;;;;;6307284;28;20052;-79
2023/03/25 10:36:33;;;;;;;1.85;0.90;;;13.20;99.90;;;;;;6313977;28;20043;-78
2023/03/25 10:39:38;;;;;;;1.83;0.60;;;13.50;99.90;;;;;;6298511;28;20047;-82
2023/03/25 10:42:50;;;;;;;0.38;0.38;;;13.80;99.90;;;;;;6295031;28;20052;-81
2023/03/25 10:45:56;;;;;;;2.53;1.17;;;14.00;99.90;;;;;;6293577;28;20431;-80
2023/03/25 10:48:57;;;;;;;1.73;0.93;;;14.00;99.90;;;;;;6293638;28;20056;-80
2023/03/25 10:52:01;;;;;;;1.98;1.00;;;13.80;99.90;;;;;;6291247;28;20123;-80
2023/03/25 10:55:05;;;;;;;2.95;0.60;;;13.70;99.90;;;;;;6292621;28;20095;-80
2023/03/25 10:58:07;;;;;;;0.80;0.80;;;13.60;99.90;;;;;;6291413;28;20087;-82
2023/03/25 11:01:12;;;;;;;1.42;0.90;;;13.60;99.90;;;;;;6296151;28;21357;-80
2023/03/25 11:04:17;;;;;;;4.40;0.77;;;13.70;99.90;;;;;;6294264;28;20048;-81
2023/03/25 11:07:22;;;;;;;2.13;0.98;;;13.80;99.90;;;;;;6294269;28;20061;-81
2023/03/25 11:10:28;;;;;;;1.17;0.52;;;14.00;99.90;;;;;;6296583;28;20519;-82
2023/03/25 11:13:30;;;;;;;3.17;0.80;;;14.50;99.90;;;;;;6291749;28;20044;-81
2023/03/25 11:16:33;;;;;;;1.52;0.60;;;14.70;99.90;;;;;;6293864;28;20044;-81
2023/03/25 11:19:40;;;;;;;5.47;1.10;;;14.50;99.90;;;;;;6292223;28;20040;-81
2023/03/25 11:22:47;;;;;;;3.22;0.70;;;14.40;99.90;;;;;;6314382;28;20048;-80
2023/03/25 11:25:51;;;;;;;3.53;1.88;;;14.60;99.90;;;;;;6294838;28;20059;-81
2023/03/25 11:29:01;;;;;;;1.00;0.90;;;14.80;99.90;;;;;;6294937;28;20048;-80
2023/03/25 11:32:08;;;;;;;2.25;0.80;;;14.80;99.90;;;;;;6294694;28;20048;-79
2023/03/25 11:35:18;;;;;;;5.63;0.90;;;14.90;99.90;;;;;;6298108;28;20040;-81
2023/03/25 11:38:22;;;;;;;3.70;1.08;;;14.70;99.90;;;;;;6309079;28;21805;-80
2023/03/25 11:41:29;;;;;;;2.50;1.05;;;14.40;99.90;;;;;;6305760;28;20044;-81
2023/03/25 11:44:32;;;;;;;2.78;0.98;;;14.20;99.90;;;;;;6299440;28;20043;-80
2023/03/25 11:47:36;;;;;;;1.42;0.80;;;14.00;99.90;;;;;;6298629;28;20044;-82
2023/03/25 11:50:38;;;;;;;2.42;0.60;;;13.90;99.90;;;;;;6297973;28;20059;-81
2023/03/25 11:53:45;;;;;;;1.55;0.52;;;13.80;99.90;;;;;;6297019;28;20044;-82
2023/03/25 11:56:50;;;;;;;1.00;0.45;;;13.80;99.90;;;;;;6297423;28;20138;-81
2023/03/25 12:00:04;;;;;;;0.50;0.50;;;14.00;99.90;;;;;;6295074;28;20040;-81
2023/03/25 12:03:17;;;;;;;3.78;0.63;;;14.20;99.90;;;;;;6288811;28;20049;-81
2023/03/25 12:06:21;;;;;;;3.78;0.73;;;14.60;99.90;;;;;;6295314;28;20048;-81
2023/03/25 12:09:23;;;;;;;1.38;0.75;;;14.90;99.90;;;;;;6293360;28;20048;-80
2023/03/25 12:12:37;;;;;;;0.95;0.93;;;14.60;99.90;;;;;;6291590;28;20053;-81
2023/03/25 12:15:48;;;;;;;2.05;0.65;;;14.60;99.90;;;;;;6291134;28;20044;-81
2023/03/25 12:23:18;;;;;;;0.90;0.45;;;15.30;99.90;;;;;;6199666;28;20077;-81
2023/03/25 12:38:48;;;;;;;2.38;0.73;;;16.10;99.90;;;;;;6079678;29;20460;-81
2023/03/25 12:42:01;;;;;;;2.10;0.65;;;16.00;99.90;;;;;;6139643;28;20123;-81
2023/03/25 12:45:24;;;;;;;0.77;0.60;;;15.90;99.90;;;;;;6189714;28;20062;-81
2023/03/25 12:48:58;;;;;;;2.15;0.50;;;15.80;99.90;;;;;;6133671;28;20080;-81
2023/03/25 12:56:20;;;;;;;1.25;0.63;;;15.40;99.90;;;;;;6238339;28;20048;-81
2023/03/25 12:59:59;;;;;;;1.23;0.73;;;15.30;99.90;;;;;;6296078;28;20044;-84
2023/03/25 13:03:56;;;;;;;0.47;0.47;;;15.20;99.90;;;;;;6302611;28;20122;-82
2023/03/25 13:07:09;;;;;;;3.17;0.60;;;15.60;99.90;;;;;;6300674;28;20041;-82
2023/03/25 13:11:08;;;;;;;2.45;1.20;;;15.60;99.90;;;;;;6300126;28;20048;-83
2023/03/25 13:17:57;;;;;;;3.33;0.68;;;15.30;99.90;;;;;;6276653;28;20121;-83
2023/03/25 13:21:04;;;;;;;0.85;0.60;;;15.00;99.90;;;;;;6300962;28;20072;-83
2023/03/25 13:24:12;;;;;;;2.90;0.60;;;14.70;99.90;;;;;;6298677;28;20037;-83
2023/03/25 13:27:50;;;;;;;0.50;0.40;;;14.50;99.90;;;;;;6300148;28;20080;-83
2023/03/25 13:31:19;;;;;;;20.63;15.73;;;14.40;99.90;;;;;;6289412;28;20048;-83
2023/03/25 13:34:34;;;;;;;5.07;1.20;;;13.80;99.90;;;;;;6296778;28;20055;-83
2023/03/25 13:37:41;;;;;;;3.78;1.92;;;13.50;99.90;;;;;;6299999;28;20510;-81
2023/03/25 13:40:51;;;;;;;2.53;2.33;;;13.60;99.90;;;;;;6297581;28;20382;-81
2023/03/25 13:44:04;;;;;;;7.60;4.80;;;14.00;99.90;;;;;;6297343;28;20066;-82
2023/03/25 13:47:17;;;;;;;3.45;1.70;;;14.30;99.90;;;;;;6302084;28;20049;-85
2023/03/25 13:50:25;;;;;;;2.30;1.20;;;14.70;99.90;;;;;;6299432;28;20055;-82
2023/03/25 13:53:36;;;;;;;;;;;15.00;99.90;;;;;;6298719;28;20056;-82
2023/03/25 13:57:17;;;;;;;2.67;1.58;;;15.30;99.90;;;;;;6283885;28;20021;-84
2023/03/25 14:00:50;;;;;;;4.22;1.65;;;15.30;99.90;;;;;;6296649;28;21095;-80
2023/03/25 14:04:48;;;;;;;3.60;1.20;;;15.10;99.90;;;;;;6258028;28;20379;-82
2023/03/25 14:08:17;;;;;;;6.30;3.63;;;14.90;99.90;;;;;;6281336;28;20041;-83
2023/03/25 14:11:29;;;;;;;3.42;1.25;;;14.80;99.90;;;;;;6295765;28;20049;-83
2023/03/25 14:18:18;;;;;;;4.07;2.42;;;14.70;99.90;;;;;;6285957;28;20056;-83
2023/03/25 14:21:41;;;;;;;4.82;3.28;;;14.90;99.90;;;;;;6295564;28;20047;-85
2023/03/25 14:24:44;;;;;;;4.07;1.60;;;14.80;99.90;;;;;;6297929;28;20048;-83
2023/03/25 14:27:50;;;;;;;4.00;1.15;;;15.20;99.90;;;;;;6296069;28;20060;-83
2023/03/25 14:31:16;;;;;;;3.53;1.40;;;15.70;99.90;;;;;;6296995;28;20052;-83
2023/03/25 14:34:27;;;;;;;2.63;1.20;;;15.80;99.90;;;;;;6295343;28;20048;-83
2023/03/25 14:40:50;;;;;;;2.30;1.30;;;16.10;99.90;;;;;;6309994;22;20058;-76
2023/03/25 14:44:11;;;;;;;3.42;1.75;;;16.60;99.90;;;;;;6242126;28;20049;-76
2023/03/25 14:47:56;;;;;;;5.22;3.90;;;16.70;99.90;;;;;;6244756;28;20100;-76
2023/03/25 14:51:47;;;;;;;3.33;2.72;;;16.70;99.90;;;;;;6275912;22;20080;-77
2023/03/25 14:55:08;;;;;;;2.65;1.15;;;16.90;99.90;;;;;;6253253;28;20136;-77
2023/03/25 14:58:18;;;;;;;4.05;1.38;;;17.20;97.00;;;;;;6265171;28;20045;-76
2023/03/25 15:01:35;;;;;;;1.25;1.08;;;17.60;94.80;;;;;;6263239;28;20053;-77
2023/03/25 15:04:40;;;;;;;3.05;1.15;;;17.50;92.30;;;;;;6252525;28;20049;-77
2023/03/25 15:08:08;;;;;;;2.53;0.52;;;17.20;92.70;;;;;;6255561;28;21299;-76
2023/03/25 15:11:15;;;;;;;3.10;0.80;;;17.20;91.10;;;;;;6254310;28;20045;-76
2023/03/25 15:14:23;;;;;;;2.58;1.02;;;16.80;91.90;;;;;;6262348;28;20060;-76
2023/03/25 15:17:45;;;;;;;4.20;1.65;;;16.80;92.10;;;;;;6262582;28;20115;-76
2023/03/25 15:20:47;;;;;;;7.75;0.70;;;16.60;90.80;;;;;;6264489;28;20056;-76
2023/03/25 15:23:51;;;;;;;5.63;0.90;;;16.50;91.40;;;;;;6261624;28;22978;-76
2023/03/25 15:27:02;;;;;;;2.78;1.20;;;16.40;92.00;;;;;;6260447;28;20056;-77
2023/03/25 15:30:35;;;;;;;1.80;0.90;;;16.20;91.40;;;;;;6236202;28;20753;-77
2023/03/25 15:38:06;;;;;;;0.95;0.82;;;15.70;92.50;;;;;;6236690;28;20124;-76
2023/03/25 15:41:43;;;;;;;2.97;1.17;;;15.50;92.00;;;;;;6236794;28;20166;-77
2023/03/25 15:45:16;;;;;;;6.85;3.53;;;15.40;92.60;;;;;;6235105;28;20055;-76
2023/03/25 15:49:02;;;;;;;2.65;1.10;;;15.30;92.40;;;;;;6230087;28;20064;-77
2023/03/25 15:52:40;;;;;;;1.70;0.73;;;15.30;91.70;;;;;;6241645;28;20416;-77
2023/03/25 15:55:47;;;;;;;3.55;1.02;;;15.30;91.90;;;;;;6230153;28;20152;-76
2023/03/25 15:58:54;;;;;;;6.75;1.92;;;15.30;90.90;;;;;;6232294;28;20048;-76
2023/03/25 16:02:00;;;;;;;3.08;0.65;;;15.10;90.20;;;;;;6236180;28;20046;-77
2023/03/25 16:05:05;;;;;;;2.25;1.20;;;15.00;88.60;;;;;;6234670;28;20057;-77
2023/03/25 16:08:11;;;;;;;1.42;0.50;;;15.10;87.80;;;;;;6231831;28;20050;-76
2023/03/25 16:11:24;;;;;;;1.25;0.70;;;15.10;86.50;;;;;;6210301;28;20053;-76
2023/03/25 16:14:30;;;;;;;1.15;0.88;;;15.00;85.60;;;;;;6232765;28;20045;-75
2023/03/25 16:17:35;;;;;;;0.77;0.57;;;15.00;85.50;;;;;;6238041;28;20507;-77
2023/03/25 16:20:40;;;;;;;0.73;0.73;;;14.80;84.90;;;;;;6233297;28;20049;-77
2023/03/25 16:23:42;;;;;;;5.50;0.90;;;14.80;86.70;;;;;;6232633;28;20103;-76
2023/03/25 16:26:46;;;;;;;0.82;0.75;;;14.70;87.00;;;;;;6232649;28;20172;-76
2023/03/25 16:29:49;;;;;;;4.80;1.00;;;14.80;88.40;;;;;;6235178;28;20492;-76
2023/03/25 16:32:51;;;;;;;2.45;1.48;;;14.80;89.50;;;;;;6235970;28;20049;-77
2023/03/25 16:35:58;;;;;;;2.63;1.45;;;14.80;90.10;;;;;;6232220;28;20053;-76
2023/03/25 16:38:59;;;;;;;1.17;0.93;;;14.70;90.20;;;;;;6240212;28;20857;-77
2023/03/25 16:42:05;;;;;;;2.88;1.27;;;14.60;88.70;;;;;;6236865;28;20216;-77
2023/03/25 16:45:30;;;;;;;2.38;1.10;;;14.50;89.50;;;;;;6265638;28;20049;-77
2023/03/25 16:48:34;;;;;;;1.65;0.98;;;14.50;90.10;;;;;;6262936;28;20124;-77
2023/03/25 16:51:39;;;;;;;2.08;1.20;;;14.40;89.70;;;;;;6259657;28;20411;-76
2023/03/25 16:54:47;;;;;;;3.38;1.23;;;14.40;89.70;;;;;;6264951;28;20048;-76
2023/03/25 17:17:44;;;;;;;0.98;0.60;;;14.30;83.80;;;;;;6764349;22;20562;-77
2023/03/25 17:20:48;;;;;;;2.25;0.60;;;14.30;84.00;;;;;;6285843;28;20048;-77
2023/03/25 17:24:21;;;;;;;4.47;1.95;;;14.20;84.70;;;;;;6287796;28;20054;-77